sensor_id;sensor_type;location;lat;lon;timestamp;pressure;altitude;pressure_sealevel;temperature;humidity
44457;BME280;30159;49.316;8.558;2023-02-27T00:01:35;101090.03;;;0.73;71.11
44457;BME280;30159;49.316;8.558;2023-02-27T00:04:03;101069.31;;;0.55;71.25
44457;BME280;30159;49.316;8.558;2023-02-27T00:06:29;101090.41;;;0.70;71.50
44457;BME280;30159;49.316;8.558;2023-02-27T00:08:56;101090.81;;;0.67;71.13
44457;BME280;30159;49.316;8.558;2023-02-27T00:11:23;101041.19;;;0.26;71.53
44457;BME280;30159;49.316;8.558;2023-02-27T00:13:50;101095.72;;;0.63;71.54
44457;BME280;30159;49.316;8.558;2023-02-27T00:16:17;101091.22;;;0.63;71.53
44457;BME280;30159;49.316;8.558;2023-02-27T00:18:44;101091.63;;;0.67;71.50
44457;BME280;30159;49.316;8.558;2023-02-27T00:21:10;101078.34;;;0.67;71.60
44457;BME280;30159;49.316;8.558;2023-02-27T00:23:37;101087.53;;;0.65;71.79
44457;BME280;30159;49.316;8.558;2023-02-27T00:26:03;101088.56;;;0.63;71.85
44457;BME280;30159;49.316;8.558;2023-02-27T00:28:30;101085.50;;;0.67;71.83
44457;BME280;30159;49.316;8.558;2023-02-27T00:30:58;101037.63;;;0.40;71.36
44457;BME280;30159;49.316;8.558;2023-02-27T00:33:24;101075.28;;;0.63;71.89
44457;BME280;30159;49.316;8.558;2023-02-27T00:35:55;101034.56;;;0.43;71.85
44457;BME280;30159;49.316;8.558;2023-02-27T00:38:22;101087.56;;;0.71;72.18
44457;BME280;30159;49.316;8.558;2023-02-27T00:40:48;101085.91;;;0.63;72.21
44457;BME280;30159;49.316;8.558;2023-02-27T00:43:15;100977.38;;;-0.01;72.16
44457;BME280;30159;49.316;8.558;2023-02-27T00:45:41;101071.53;;;0.51;72.81
44457;BME280;30159;49.316;8.558;2023-02-27T00:48:09;101088.78;;;0.69;72.35
44457;BME280;30159;49.316;8.558;2023-02-27T00:50:36;101088.78;;;0.69;72.35
44457;BME280;30159;49.316;8.558;2023-02-27T00:53:03;100924.88;;;-0.47;72.08
44457;BME280;30159;49.316;8.558;2023-02-27T00:55:29;101091.22;;;0.63;72.73
44457;BME280;30159;49.316;8.558;2023-02-27T00:57:56;101075.06;;;0.65;72.73
44457;BME280;30159;49.316;8.558;2023-02-27T01:00:23;101083.03;;;0.65;72.35
44457;BME280;30159;49.316;8.558;2023-02-27T01:02:49;101087.94;;;0.61;72.73
44457;BME280;30159;49.316;8.558;2023-02-27T01:05:17;101079.94;;;0.55;73.12
44457;BME280;30159;49.316;8.558;2023-02-27T01:07:44;101082.22;;;0.65;72.74
44457;BME280;30159;49.316;8.558;2023-02-27T01:10:11;101064.56;;;0.44;73.18
44457;BME280;30159;49.316;8.558;2023-02-27T01:12:38;101089.34;;;0.57;72.80
44457;BME280;30159;49.316;8.558;2023-02-27T01:15:06;101077.09;;;0.56;73.33
44457;BME280;30159;49.316;8.558;2023-02-27T01:17:33;101076.84;;;0.51;73.61
44457;BME280;30159;49.316;8.558;2023-02-27T01:19:59;101070.72;;;0.51;73.45
44457;BME280;30159;49.316;8.558;2023-02-27T01:22:27;101075.41;;;0.49;73.90
44457;BME280;30159;49.316;8.558;2023-02-27T01:24:54;101072.56;;;0.50;73.72
44457;BME280;30159;49.316;8.558;2023-02-27T01:27:20;101068.25;;;0.43;74.06
44457;BME280;30159;49.316;8.558;2023-02-27T01:29:47;101075.97;;;0.44;74.25
44457;BME280;30159;49.316;8.558;2023-02-27T01:32:13;101070.69;;;0.44;73.73
44457;BME280;30159;49.316;8.558;2023-02-27T01:34:40;101065.63;;;0.49;73.63
44457;BME280;30159;49.316;8.558;2023-02-27T01:37:06;101062.34;;;0.47;73.57
44457;BME280;30159;49.316;8.558;2023-02-27T01:39:34;101064.41;;;0.52;72.63
44457;BME280;30159;49.316;8.558;2023-02-27T01:42:02;101057.66;;;0.49;72.57
44457;BME280;30159;49.316;8.558;2023-02-27T01:44:30;101061.94;;;0.50;72.84
44457;BME280;30159;49.316;8.558;2023-02-27T01:46:57;101065.38;;;0.44;72.42
44457;BME280;30159;49.316;8.558;2023-02-27T01:49:26;101059.25;;;0.44;72.23
44457;BME280;30159;49.316;8.558;2023-02-27T01:51:57;101056.59;;;0.44;72.02
44457;BME280;30159;49.316;8.558;2023-02-27T01:54:26;101064.56;;;0.44;72.28
44457;BME280;30159;49.316;8.558;2023-02-27T01:56:54;100899.31;;;-0.61;72.19
44457;BME280;30159;49.316;8.558;2023-02-27T01:59:22;101063.94;;;0.41;71.29
44457;BME280;30159;49.316;8.558;2023-02-27T02:01:49;101057.22;;;0.46;70.94
44457;BME280;30159;49.316;8.558;2023-02-27T02:04:21;101054.97;;;0.43;71.08
44457;BME280;30159;49.316;8.558;2023-02-27T02:06:54;101061.72;;;0.45;70.55
44457;BME280;30159;49.316;8.558;2023-02-27T02:09:22;101067.44;;;0.49;70.13
44457;BME280;30159;49.316;8.558;2023-02-27T02:11:49;101031.19;;;0.28;71.00
44457;BME280;30159;49.316;8.558;2023-02-27T02:14:18;101064.97;;;0.40;70.89
44457;BME280;30159;49.316;8.558;2023-02-27T02:17:04;101062.13;;;0.42;70.13
44457;BME280;30159;49.316;8.558;2023-02-27T02:19:52;101033.00;;;0.20;70.32
44457;BME280;30159;49.316;8.558;2023-02-27T02:22:48;101061.91;;;0.44;70.13
44457;BME280;30159;49.316;8.558;2023-02-27T02:25:46;101064.38;;;0.45;70.20
44457;BME280;30159;49.316;8.558;2023-02-27T02:28:37;101067.22;;;0.44;69.31
44457;BME280;30159;49.316;8.558;2023-02-27T02:31:40;101073.09;;;0.39;69.71
44457;BME280;30159;49.316;8.558;2023-02-27T02:34:45;101066.16;;;0.38;70.05
44457;BME280;30159;49.316;8.558;2023-02-27T02:40:34;101077.16;;;0.35;69.65
44457;BME280;30159;49.316;8.558;2023-02-27T02:43:07;100988.69;;;-0.20;70.04
44457;BME280;30159;49.316;8.558;2023-02-27T02:45:40;101052.41;;;0.21;69.54
44457;BME280;30159;49.316;8.558;2023-02-27T02:48:15;101063.63;;;0.23;69.93
44457;BME280;30159;49.316;8.558;2023-02-27T02:50:48;101060.19;;;0.29;70.27
44457;BME280;30159;49.316;8.558;2023-02-27T02:53:20;101077.31;;;0.27;70.59
44457;BME280;30159;49.316;8.558;2023-02-27T02:55:57;101073.00;;;0.19;70.66
44457;BME280;30159;49.316;8.558;2023-02-27T02:58:28;101066.84;;;0.18;70.85
44457;BME280;30159;49.316;8.558;2023-02-27T03:01:01;101071.16;;;0.19;71.50
44457;BME280;30159;49.316;8.558;2023-02-27T03:03:31;101068.91;;;0.23;71.77
44457;BME280;30159;49.316;8.558;2023-02-27T03:06:03;101075.66;;;0.19;71.43
44457;BME280;30159;49.316;8.558;2023-02-27T03:08:35;101071.19;;;0.26;71.40
44457;BME280;30159;49.316;8.558;2023-02-27T03:11:04;101070.97;;;0.21;72.31
44457;BME280;30159;49.316;8.558;2023-02-27T03:13:35;101069.13;;;0.22;72.00
44457;BME280;30159;49.316;8.558;2023-02-27T03:16:07;101078.66;;;0.16;71.82
44457;BME280;30159;49.316;8.558;2023-02-27T03:18:38;101080.69;;;0.14;72.01
44457;BME280;30159;49.316;8.558;2023-02-27T03:21:15;101079.88;;;0.13;72.44
44457;BME280;30159;49.316;8.558;2023-02-27T03:23:45;101079.50;;;0.16;71.87
44457;BME280;30159;49.316;8.558;2023-02-27T03:26:16;101101.66;;;0.09;72.59
44457;BME280;30159;49.316;8.558;2023-02-27T03:28:50;101084.13;;;0.08;72.12
44457;BME280;30159;49.316;8.558;2023-02-27T03:31:24;101083.75;;;0.11;72.28
44457;BME280;30159;49.316;8.558;2023-02-27T03:33:56;101092.78;;;0.16;72.46
44457;BME280;30159;49.316;8.558;2023-02-27T03:36:31;101093.28;;;0.05;73.20
44457;BME280;30159;49.316;8.558;2023-02-27T03:39:10;101096.94;;;0.04;72.83
44457;BME280;30159;49.316;8.558;2023-02-27T03:41:46;101093.47;;;0.04;72.98
44457;BME280;30159;49.316;8.558;2023-02-27T03:44:23;101044.69;;;-0.30;72.73
44457;BME280;30159;49.316;8.558;2023-02-27T03:46:53;101111.00;;;0.05;72.57
44457;BME280;30159;49.316;8.558;2023-02-27T03:49:19;101109.22;;;0.05;73.54
44457;BME280;30159;49.316;8.558;2023-02-27T03:51:46;101111.81;;;-0.02;73.09
44457;BME280;30159;49.316;8.558;2023-02-27T03:54:15;101105.69;;;-0.02;73.61
44457;BME280;30159;49.316;8.558;2023-02-27T03:56:46;101105.72;;;0.05;73.37
44457;BME280;30159;49.316;8.558;2023-02-27T03:59:16;101108.97;;;0.00;73.46
44457;BME280;30159;49.316;8.558;2023-02-27T04:01:43;101108.28;;;-0.09;73.83
44457;BME280;30159;49.316;8.558;2023-02-27T04:04:13;101121.59;;;-0.02;73.31
44457;BME280;30159;49.316;8.558;2023-02-27T04:06:45;101108.69;;;-0.05;73.13
44457;BME280;30159;49.316;8.558;2023-02-27T04:09:42;101108.84;;;-0.13;72.82
44457;BME280;30159;49.316;8.558;2023-02-27T04:12:26;101119.69;;;-0.08;72.69
44457;BME280;30159;49.316;8.558;2023-02-27T04:15:04;101045.53;;;-0.51;73.30
44457;BME280;30159;49.316;8.558;2023-02-27T04:17:40;101115.84;;;-0.06;73.06
44457;BME280;30159;49.316;8.558;2023-02-27T04:20:25;101070.94;;;-0.35;72.44
44457;BME280;30159;49.316;8.558;2023-02-27T04:22:58;101119.03;;;0.11;71.11
44457;BME280;30159;49.316;8.558;2023-02-27T04:25:50;101124.28;;;0.05;71.84
44457;BME280;30159;49.316;8.558;2023-02-27T04:28:26;101121.88;;;0.10;72.08
44457;BME280;30159;49.316;8.558;2023-02-27T04:31:04;101123.28;;;0.06;70.90
44457;BME280;30159;49.316;8.558;2023-02-27T04:33:41;101114.69;;;0.04;71.01
44457;BME280;30159;49.316;8.558;2023-02-27T04:36:14;101113.63;;;-0.02;71.64
44457;BME280;30159;49.316;8.558;2023-02-27T04:38:46;101133.72;;;0.07;71.01
44457;BME280;30159;49.316;8.558;2023-02-27T04:41:19;101061.09;;;-0.41;71.17
44457;BME280;30159;49.316;8.558;2023-02-27T04:43:49;101128.75;;;0.04;71.68
44457;BME280;30159;49.316;8.558;2023-02-27T04:46:19;101140.19;;;0.05;71.60
44457;BME280;30159;49.316;8.558;2023-02-27T04:48:51;101067.59;;;-0.44;71.89
44457;BME280;30159;49.316;8.558;2023-02-27T04:51:22;101152.00;;;0.02;70.67
44457;BME280;30159;49.316;8.558;2023-02-27T04:53:53;101148.34;;;0.03;70.86
44457;BME280;30159;49.316;8.558;2023-02-27T04:56:25;101151.56;;;-0.02;71.11
44457;BME280;30159;49.316;8.558;2023-02-27T04:58:58;101149.50;;;-0.06;70.17
44457;BME280;30159;49.316;8.558;2023-02-27T05:01:32;101146.66;;;-0.05;69.93
44457;BME280;30159;49.316;8.558;2023-02-27T05:04:00;101136.25;;;-0.06;70.58
44457;BME280;30159;49.316;8.558;2023-02-27T05:06:31;101052.25;;;-0.70;70.09
44457;BME280;30159;49.316;8.558;2023-02-27T05:09:07;101150.44;;;-0.14;70.92
44457;BME280;30159;49.316;8.558;2023-02-27T05:11:42;101152.66;;;-0.17;70.78
44457;BME280;30159;49.316;8.558;2023-02-27T05:14:12;101057.44;;;-0.83;69.92
44457;BME280;30159;49.316;8.558;2023-02-27T05:16:45;101148.09;;;-0.24;69.46
44457;BME280;30159;49.316;8.558;2023-02-27T05:19:14;101145.59;;;-0.32;70.30
44457;BME280;30159;49.316;8.558;2023-02-27T05:21:45;101140.03;;;-0.37;69.92
44457;BME280;30159;49.316;8.558;2023-02-27T05:24:20;101072.38;;;-0.76;69.04
44457;BME280;30159;49.316;8.558;2023-02-27T05:27:01;101164.84;;;-0.23;69.50
44457;BME280;30159;49.316;8.558;2023-02-27T05:29:38;101145.50;;;-0.17;69.18
44457;BME280;30159;49.316;8.558;2023-02-27T05:32:15;101154.66;;;-0.19;68.69
44457;BME280;30159;49.316;8.558;2023-02-27T05:34:49;101159.97;;;-0.19;68.75
44457;BME280;30159;49.316;8.558;2023-02-27T05:37:19;101154.66;;;-0.19;68.52
44457;BME280;30159;49.316;8.558;2023-02-27T05:39:50;101164.38;;;-0.27;68.71
44457;BME280;30159;49.316;8.558;2023-02-27T05:42:21;101154.97;;;-0.29;68.87
44457;BME280;30159;49.316;8.558;2023-02-27T05:44:54;101157.13;;;-0.39;70.59
44457;BME280;30159;49.316;8.558;2023-02-27T05:47:23;101157.06;;;-0.46;70.02
44457;BME280;30159;49.316;8.558;2023-02-27T05:49:55;101164.75;;;-0.51;70.84
44457;BME280;30159;49.316;8.558;2023-02-27T05:52:24;101148.06;;;-0.67;70.69
44457;BME280;30159;49.316;8.558;2023-02-27T05:54:55;101164.84;;;-0.59;70.92
44457;BME280;30159;49.316;8.558;2023-02-27T05:57:28;101005.22;;;-1.62;70.74
44457;BME280;30159;49.316;8.558;2023-02-27T06:00:00;101161.88;;;-0.71;70.57
44457;BME280;30159;49.316;8.558;2023-02-27T06:02:29;101167.59;;;-0.68;72.10
44457;BME280;30159;49.316;8.558;2023-02-27T06:04:55;101168.06;;;-0.64;71.92
44457;BME280;30159;49.316;8.558;2023-02-27T06:07:22;101167.59;;;-0.68;72.93
44457;BME280;30159;49.316;8.558;2023-02-27T06:09:49;101154.84;;;-0.79;73.37
44457;BME280;30159;49.316;8.558;2023-02-27T06:12:15;101172.47;;;-0.71;73.11
44457;BME280;30159;49.316;8.558;2023-02-27T06:14:43;101171.09;;;-0.82;73.54
44457;BME280;30159;49.316;8.558;2023-02-27T06:17:11;101172.38;;;-0.78;72.80
44457;BME280;30159;49.316;8.558;2023-02-27T06:19:37;101162.44;;;-0.76;73.09
44457;BME280;30159;49.316;8.558;2023-02-27T06:22:04;101171.91;;;-0.67;72.19
44457;BME280;30159;49.316;8.558;2023-02-27T06:24:30;101171.13;;;-0.46;72.47
44457;BME280;30159;49.316;8.558;2023-02-27T06:26:57;101175.38;;;-0.30;71.27
44457;BME280;30159;49.316;8.558;2023-02-27T06:29:23;101180.44;;;-0.13;71.79
44457;BME280;30159;49.316;8.558;2023-02-27T06:31:50;101184.59;;;-0.04;70.79
44457;BME280;30159;49.316;8.558;2023-02-27T06:34:18;101186.19;;;0.12;71.31
44457;BME280;30159;49.316;8.558;2023-02-27T06:36:44;101181.25;;;0.37;70.12
44457;BME280;30159;49.316;8.558;2023-02-27T06:39:11;101176.00;;;1.13;68.62
44457;BME280;30159;49.316;8.558;2023-02-27T06:41:38;101170.84;;;0.98;67.86
44457;BME280;30159;49.316;8.558;2023-02-27T06:44:04;101181.91;;;1.09;68.16
44457;BME280;30159;49.316;8.558;2023-02-27T06:46:31;101185.09;;;1.32;67.37
44457;BME280;30159;49.316;8.558;2023-02-27T06:48:57;101182.63;;;1.37;66.88
44457;BME280;30159;49.316;8.558;2023-02-27T06:51:25;101180.63;;;1.46;67.25
44457;BME280;30159;49.316;8.558;2023-02-27T06:53:52;101186.31;;;2.18;65.04
44457;BME280;30159;49.316;8.558;2023-02-27T06:56:18;101181.59;;;2.13;64.93
44457;BME280;30159;49.316;8.558;2023-02-27T06:58:45;101192.22;;;2.00;65.02
44457;BME280;30159;49.316;8.558;2023-02-27T07:01:11;101185.69;;;2.16;64.49
44457;BME280;30159;49.316;8.558;2023-02-27T07:03:38;101204.47;;;1.87;65.58
44457;BME280;30159;49.316;8.558;2023-02-27T07:06:05;101206.56;;;2.65;63.57
44457;BME280;30159;49.316;8.558;2023-02-27T07:08:33;101204.88;;;2.84;63.42
44457;BME280;30159;49.316;8.558;2023-02-27T07:11:00;101203.91;;;2.52;62.57
44457;BME280;30159;49.316;8.558;2023-02-27T07:13:26;101198.41;;;3.32;61.65
44457;BME280;30159;49.316;8.558;2023-02-27T07:15:53;101114.03;;;2.21;61.63
44457;BME280;30159;49.316;8.558;2023-02-27T07:18:19;101214.91;;;2.95;61.49
44457;BME280;30159;49.316;8.558;2023-02-27T07:20:48;101199.03;;;3.27;59.52
44457;BME280;30159;49.316;8.558;2023-02-27T07:23:15;101215.16;;;2.61;61.02
44457;BME280;30159;49.316;8.558;2023-02-27T07:25:47;101224.41;;;2.45;61.36
44457;BME280;30159;49.316;8.558;2023-02-27T07:28:13;101222.59;;;1.57;64.25
44457;BME280;30159;49.316;8.558;2023-02-27T07:30:40;101224.38;;;1.43;64.50
44457;BME280;30159;49.316;8.558;2023-02-27T07:33:07;101182.72;;;1.09;64.83
44457;BME280;30159;49.316;8.558;2023-02-27T07:35:34;101218.13;;;1.16;65.84
44457;BME280;30159;49.316;8.558;2023-02-27T07:38:00;101212.97;;;1.08;65.69
44457;BME280;30159;49.316;8.558;2023-02-27T07:40:27;101230.19;;;1.19;65.78
44457;BME280;30159;49.316;8.558;2023-02-27T07:42:55;101186.53;;;0.93;66.10
44457;BME280;30159;49.316;8.558;2023-02-27T07:45:21;101229.59;;;1.23;66.59
44457;BME280;30159;49.316;8.558;2023-02-27T07:47:48;101235.13;;;1.22;66.17
44457;BME280;30159;49.316;8.558;2023-02-27T07:50:15;101234.56;;;1.33;66.15
44457;BME280;30159;49.316;8.558;2023-02-27T07:52:42;101236.00;;;1.36;65.41
44457;BME280;30159;49.316;8.558;2023-02-27T07:55:10;101226.56;;;1.26;66.37
44457;BME280;30159;49.316;8.558;2023-02-27T07:57:37;101222.13;;;1.40;66.24
44457;BME280;30159;49.316;8.558;2023-02-27T08:00:07;101229.53;;;1.52;66.72
44457;BME280;30159;49.316;8.558;2023-02-27T08:02:34;101235.25;;;1.48;65.94
44457;BME280;30159;49.316;8.558;2023-02-27T08:05:00;101229.69;;;1.43;65.55
44457;BME280;30159;49.316;8.558;2023-02-27T08:07:27;101233.00;;;1.52;66.59
44457;BME280;30159;49.316;8.558;2023-02-27T08:09:53;101229.53;;;1.52;65.42
44457;BME280;30159;49.316;8.558;2023-02-27T08:12:20;101230.94;;;1.47;66.42
44457;BME280;30159;49.316;8.558;2023-02-27T08:14:47;101236.28;;;1.47;66.58
44457;BME280;30159;49.316;8.558;2023-02-27T08:17:15;101234.44;;;1.55;66.37
44457;BME280;30159;49.316;8.558;2023-02-27T08:19:41;101233.66;;;1.67;66.47
44457;BME280;30159;49.316;8.558;2023-02-27T08:22:08;101221.81;;;1.63;66.13
44457;BME280;30159;49.316;8.558;2023-02-27T08:24:36;101215.84;;;1.55;65.79
44457;BME280;30159;49.316;8.558;2023-02-27T08:27:03;101220.19;;;1.69;65.83
44457;BME280;30159;49.316;8.558;2023-02-27T08:29:29;101222.50;;;1.92;65.14
44457;BME280;30159;49.316;8.558;2023-02-27T08:31:57;101212.84;;;1.78;65.33
44457;BME280;30159;49.316;8.558;2023-02-27T08:34:25;101221.03;;;1.83;65.42
44457;BME280;30159;49.316;8.558;2023-02-27T08:36:52;101224.34;;;1.92;64.62
44457;BME280;30159;49.316;8.558;2023-02-27T08:39:18;101228.00;;;1.90;64.44
44457;BME280;30159;49.316;8.558;2023-02-27T08:41:48;101237.41;;;1.93;64.50
44457;BME280;30159;49.316;8.558;2023-02-27T08:44:14;101223.50;;;1.84;63.65
44457;BME280;30159;49.316;8.558;2023-02-27T08:46:41;101235.22;;;2.03;63.92
44457;BME280;30159;49.316;8.558;2023-02-27T08:49:07;101237.66;;;1.98;62.97
44457;BME280;30159;49.316;8.558;2023-02-27T08:51:35;101250.16;;;2.11;62.96
44457;BME280;30159;49.316;8.558;2023-02-27T08:54:02;101243.41;;;2.15;62.85
44457;BME280;30159;49.316;8.558;2023-02-27T08:56:28;101243.63;;;2.27;62.63
44457;BME280;30159;49.316;8.558;2023-02-27T08:58:57;101227.03;;;2.11;62.37
44457;BME280;30159;49.316;8.558;2023-02-27T09:01:24;101251.00;;;2.25;62.07
44457;BME280;30159;49.316;8.558;2023-02-27T09:03:52;101239.72;;;2.23;62.06
44457;BME280;30159;49.316;8.558;2023-02-27T09:06:18;101246.28;;;2.20;61.55
44457;BME280;30159;49.316;8.558;2023-02-27T09:08:46;101245.66;;;2.18;61.27
44457;BME280;30159;49.316;8.558;2023-02-27T09:11:13;101247.94;;;2.15;61.51
44457;BME280;30159;49.316;8.558;2023-02-27T09:13:39;101250.78;;;2.13;61.48
44457;BME280;30159;49.316;8.558;2023-02-27T09:16:06;101239.34;;;2.19;61.79
44457;BME280;30159;49.316;8.558;2023-02-27T09:18:33;101249.16;;;2.39;61.23
44457;BME280;30159;49.316;8.558;2023-02-27T09:21:00;101266.56;;;2.35;61.62
44457;BME280;30159;49.316;8.558;2023-02-27T09:23:27;101257.16;;;2.32;61.34
44457;BME280;30159;49.316;8.558;2023-02-27T09:25:55;101263.28;;;2.39;60.47
44457;BME280;30159;49.316;8.558;2023-02-27T09:28:21;101264.94;;;2.40;60.69
44457;BME280;30159;49.316;8.558;2023-02-27T09:30:48;101271.91;;;2.55;61.20
44457;BME280;30159;49.316;8.558;2023-02-27T09:33:14;101274.56;;;2.48;60.53
44457;BME280;30159;49.316;8.558;2023-02-27T09:35:41;101260.22;;;2.49;61.02
44457;BME280;30159;49.316;8.558;2023-02-27T09:38:07;101280.91;;;2.60;60.32
44457;BME280;30159;49.316;8.558;2023-02-27T09:40:38;101282.78;;;2.66;60.57
44457;BME280;30159;49.316;8.558;2023-02-27T09:43:10;101277.00;;;2.56;60.70
44457;BME280;30159;49.316;8.558;2023-02-27T09:45:40;101283.59;;;2.67;59.74
44457;BME280;30159;49.316;8.558;2023-02-27T09:48:12;101261.84;;;2.77;60.12
44457;BME280;30159;49.316;8.558;2023-02-27T09:50:42;101284.78;;;2.84;59.71
44457;BME280;30159;49.316;8.558;2023-02-27T09:53:13;101262.88;;;2.89;59.63
44457;BME280;30159;49.316;8.558;2023-02-27T09:55:41;101280.28;;;2.98;60.02
44457;BME280;30159;49.316;8.558;2023-02-27T09:58:25;101270.03;;;3.08;60.11
44457;BME280;30159;49.316;8.558;2023-02-27T10:00:59;101280.88;;;3.13;58.83
44457;BME280;30159;49.316;8.558;2023-02-27T10:03:41;101225.00;;;2.73;59.13
44457;BME280;30159;49.316;8.558;2023-02-27T10:06:21;101281.31;;;3.17;58.20
44457;BME280;30159;49.316;8.558;2023-02-27T10:08:57;101282.72;;;3.20;58.36
44457;BME280;30159;49.316;8.558;2023-02-27T10:11:31;101284.34;;;3.21;58.52
44457;BME280;30159;49.316;8.558;2023-02-27T10:14:11;101283.53;;;3.27;58.31
44457;BME280;30159;49.316;8.558;2023-02-27T10:16:43;101297.03;;;3.32;57.77
44457;BME280;30159;49.316;8.558;2023-02-27T10:19:14;101295.00;;;3.21;57.38
44457;BME280;30159;49.316;8.558;2023-02-27T10:21:43;101304.22;;;3.38;57.14
44457;BME280;30159;49.316;8.558;2023-02-27T10:24:18;101300.72;;;3.37;56.68
44457;BME280;30159;49.316;8.558;2023-02-27T10:26:50;101298.66;;;3.33;57.39
44457;BME280;30159;49.316;8.558;2023-02-27T10:29:23;101284.94;;;3.36;56.68
44457;BME280;30159;49.316;8.558;2023-02-27T10:31:55;101315.06;;;3.43;56.33
44457;BME280;30159;49.316;8.558;2023-02-27T10:34:26;101309.34;;;3.33;56.91
44457;BME280;30159;49.316;8.558;2023-02-27T10:36:54;101312.56;;;3.62;56.55
44457;BME280;30159;49.316;8.558;2023-02-27T10:39:22;101204.66;;;2.92;55.46
44457;BME280;30159;49.316;8.558;2023-02-27T10:41:50;101289.38;;;3.55;55.44
44457;BME280;30159;49.316;8.558;2023-02-27T10:44:17;101304.72;;;3.73;55.29
44457;BME280;30159;49.316;8.558;2023-02-27T10:46:46;101312.16;;;3.58;55.34
44457;BME280;30159;49.316;8.558;2023-02-27T10:49:15;101307.00;;;3.56;55.62
44457;BME280;30159;49.316;8.558;2023-02-27T10:51:43;101310.50;;;3.64;56.29
44457;BME280;30159;49.316;8.558;2023-02-27T10:54:19;101274.34;;;3.68;55.40
44457;BME280;30159;49.316;8.558;2023-02-27T10:56:49;101233.09;;;3.19;55.50
44457;BME280;30159;49.316;8.558;2023-02-27T10:59:19;101290.22;;;3.49;56.09
44457;BME280;30159;49.316;8.558;2023-02-27T11:01:49;101308.84;;;3.69;55.81
44457;BME280;30159;49.316;8.558;2023-02-27T11:04:24;101322.19;;;3.63;55.36
44457;BME280;30159;49.316;8.558;2023-02-27T11:06:51;101289.59;;;3.47;55.50
44457;BME280;30159;49.316;8.558;2023-02-27T11:09:20;101316.06;;;3.49;54.96
44457;BME280;30159;49.316;8.558;2023-02-27T11:11:48;101320.41;;;3.50;56.66
44457;BME280;30159;49.316;8.558;2023-02-27T11:14:24;101293.75;;;3.43;56.04
44457;BME280;30159;49.316;8.558;2023-02-27T11:16:54;101308.50;;;3.39;55.99
44457;BME280;30159;49.316;8.558;2023-02-27T11:19:30;101273.06;;;3.32;56.53
44457;BME280;30159;49.316;8.558;2023-02-27T11:22:03;101220.00;;;3.10;56.92
44457;BME280;30159;49.316;8.558;2023-02-27T11:24:30;101290.00;;;3.57;56.56
44457;BME280;30159;49.316;8.558;2023-02-27T11:26:58;101256.19;;;3.45;55.90
44457;BME280;30159;49.316;8.558;2023-02-27T11:29:25;101299.13;;;3.82;56.05
44457;BME280;30159;49.316;8.558;2023-02-27T11:31:55;101299.66;;;4.04;55.99
44457;BME280;30159;49.316;8.558;2023-02-27T11:34:28;101302.97;;;3.99;55.34
44457;BME280;30159;49.316;8.558;2023-02-27T11:36:58;101298.94;;;4.15;55.73
44457;BME280;30159;49.316;8.558;2023-02-27T11:39:29;101292.53;;;4.29;55.16
44457;BME280;30159;49.316;8.558;2023-02-27T11:42:07;101305.59;;;4.37;54.46
44457;BME280;30159;49.316;8.558;2023-02-27T11:44:37;101286.22;;;4.17;54.71
44457;BME280;30159;49.316;8.558;2023-02-27T11:47:15;101291.00;;;4.08;55.59
44457;BME280;30159;49.316;8.558;2023-02-27T11:50:00;101284.16;;;4.19;55.81
44457;BME280;30159;49.316;8.558;2023-02-27T11:52:32;101282.78;;;4.03;55.57
44457;BME280;30159;49.316;8.558;2023-02-27T11:55:03;101289.19;;;4.02;56.27
44457;BME280;30159;49.316;8.558;2023-02-27T11:57:34;101248.06;;;3.78;55.70
44457;BME280;30159;49.316;8.558;2023-02-27T12:00:05;101276.41;;;4.11;55.96
44457;BME280;30159;49.316;8.558;2023-02-27T12:02:43;101294.41;;;4.22;55.78
44457;BME280;30159;49.316;8.558;2023-02-27T12:05:15;101288.97;;;4.35;55.29
44457;BME280;30159;49.316;8.558;2023-02-27T12:07:45;101280.91;;;4.42;55.37
44457;BME280;30159;49.316;8.558;2023-02-27T12:10:17;101287.13;;;4.36;55.40
44457;BME280;30159;49.316;8.558;2023-02-27T12:12:48;101160.06;;;3.26;55.90
44457;BME280;30159;49.316;8.558;2023-02-27T12:15:26;101270.06;;;4.05;55.31
44457;BME280;30159;49.316;8.558;2023-02-27T12:18:02;101264.72;;;4.05;55.23
44457;BME280;30159;49.316;8.558;2023-02-27T12:20:34;101234.75;;;4.03;55.38
44457;BME280;30159;49.316;8.558;2023-02-27T12:23:12;101262.50;;;4.34;55.86
44457;BME280;30159;49.316;8.558;2023-02-27T12:25:43;101248.91;;;4.35;55.12
44457;BME280;30159;49.316;8.558;2023-02-27T12:28:20;101251.59;;;4.35;54.39
44457;BME280;30159;49.316;8.558;2023-02-27T12:30:58;101250.19;;;4.58;54.33
44457;BME280;30159;49.316;8.558;2023-02-27T12:33:36;101236.44;;;4.54;54.23
44457;BME280;30159;49.316;8.558;2023-02-27T12:36:09;101260.28;;;4.56;54.35
44457;BME280;30159;49.316;8.558;2023-02-27T12:38:37;101254.59;;;4.46;53.94
44457;BME280;30159;49.316;8.558;2023-02-27T12:41:18;101253.06;;;4.31;53.67
44457;BME280;30159;49.316;8.558;2023-02-27T12:44:04;101247.25;;;4.41;54.23
44457;BME280;30159;49.316;8.558;2023-02-27T12:46:41;101250.06;;;4.46;54.06
44457;BME280;30159;49.316;8.558;2023-02-27T12:49:23;101236.50;;;4.48;53.55
44457;BME280;30159;49.316;8.558;2023-02-27T12:51:59;101236.88;;;4.51;54.12
44457;BME280;30159;49.316;8.558;2023-02-27T12:54:34;101234.41;;;4.50;54.30
44457;BME280;30159;49.316;8.558;2023-02-27T12:57:15;101231.50;;;4.58;53.96
44457;BME280;30159;49.316;8.558;2023-02-27T13:00:00;101231.78;;;4.68;53.79
44457;BME280;30159;49.316;8.558;2023-02-27T13:05:40;101229.16;;;4.43;53.78
44457;BME280;30159;49.316;8.558;2023-02-27T13:08:18;101221.94;;;4.43;54.16
44457;BME280;30159;49.316;8.558;2023-02-27T13:10:49;101228.72;;;4.46;54.65
44457;BME280;30159;49.316;8.558;2023-02-27T13:13:24;101237.88;;;4.32;53.55
44457;BME280;30159;49.316;8.558;2023-02-27T13:15:54;101234.63;;;4.23;53.96
44457;BME280;30159;49.316;8.558;2023-02-27T13:18:31;101235.50;;;4.17;54.29
44457;BME280;30159;49.316;8.558;2023-02-27T13:21:09;101241.75;;;4.04;54.89
44457;BME280;30159;49.316;8.558;2023-02-27T13:23:43;101231.03;;;4.11;54.70